Time;durP1;ratioP1;P1;durP2;ratioP2;P2;SDS_P1;SDS_P2;PMS_P1;PMS_P2;Temp;Humidity;BMP_temperature;BMP_pressure;BME280_temperature;BME280_humidity;BME280_pressure;Samples;Min_cycle;Max_cycle;Signal;HPM_P1;HPM_P2
2024/04/23 00:00:37;;;;;;;4.45;4.05;;;-0.50;99.90;;;;;;493959;241;27477;-70
2024/04/23 00:02:38;;;;;;;3.87;3.42;;;-0.50;99.90;;;;;;494008;241;27966;-71
2024/04/23 00:04:39;;;;;;;3.92;3.53;;;-0.40;99.90;;;;;;493962;241;28028;-70
2024/04/23 00:06:41;;;;;;;4.18;3.65;;;-0.40;99.90;;;;;;493793;241;27978;-70
2024/04/23 00:08:42;;;;;;;4.72;4.00;;;-0.50;99.90;;;;;;493974;241;27513;-70
2024/04/23 00:10:43;;;;;;;4.65;4.20;;;-0.50;99.90;;;;;;493975;241;27469;-70
2024/04/23 00:12:44;;;;;;;4.75;4.03;;;-0.50;99.90;;;;;;493974;241;27491;-70
2024/04/23 00:14:46;;;;;;;4.65;3.75;;;-0.50;99.90;;;;;;493986;241;27487;-70
2024/04/23 00:16:47;;;;;;;4.53;3.40;;;-0.60;99.90;;;;;;493981;241;27596;-70
2024/04/23 00:18:48;;;;;;;4.05;3.28;;;-0.70;99.90;;;;;;494006;241;27963;-72
2024/04/23 00:20:49;;;;;;;4.75;3.10;;;-0.70;99.90;;;;;;494018;241;27521;-70
2024/04/23 00:22:51;;;;;;;4.62;3.58;;;-0.60;99.90;;;;;;493983;241;27949;-70
2024/04/23 00:24:52;;;;;;;4.22;3.83;;;-0.60;99.90;;;;;;493984;241;28024;-70
2024/04/23 00:26:53;;;;;;;4.22;3.83;;;-0.60;99.90;;;;;;493993;241;29062;-70
2024/04/23 00:28:54;;;;;;;4.68;3.97;;;-0.60;99.90;;;;;;494016;241;27497;-71
2024/04/23 00:30:56;;;;;;;3.95;3.65;;;-0.60;99.90;;;;;;494012;241;27466;-70
2024/04/23 00:32:57;;;;;;;3.67;3.35;;;-0.60;99.90;;;;;;493977;241;27564;-70
2024/04/23 00:34:58;;;;;;;3.72;3.42;;;-0.70;99.90;;;;;;494012;241;27530;-70
2024/04/23 00:36:59;;;;;;;3.70;3.40;;;-0.70;99.90;;;;;;493981;241;27508;-70
2024/04/23 00:39:01;;;;;;;4.90;3.80;;;-0.80;99.90;;;;;;493997;237;27525;-70
2024/04/23 00:41:02;;;;;;;3.80;3.50;;;-0.80;99.90;;;;;;493985;241;27465;-70
2024/04/23 00:43:03;;;;;;;4.80;3.70;;;-0.80;99.90;;;;;;493949;241;28010;-70
2024/04/23 00:45:04;;;;;;;5.22;4.72;;;-0.90;99.90;;;;;;493995;241;28059;-71
2024/04/23 00:47:06;;;;;;;5.18;3.90;;;-0.80;99.90;;;;;;494029;237;27960;-70
2024/04/23 00:49:07;;;;;;;4.80;3.87;;;-0.90;99.90;;;;;;494006;237;27496;-70
2024/04/23 00:51:08;;;;;;;3.30;3.05;;;-0.90;99.90;;;;;;494002;237;27552;-70
2024/04/23 00:53:09;;;;;;;3.92;3.28;;;-0.90;99.90;;;;;;493986;241;27509;-70
2024/04/23 00:55:11;;;;;;;4.30;3.85;;;-0.90;99.90;;;;;;494012;237;27505;-71
2024/04/23 00:57:12;;;;;;;4.70;3.80;;;-0.80;99.90;;;;;;493993;241;27569;-71
2024/04/23 00:59:16;;;;;;;6.07;3.62;;;-0.90;99.90;;;;;;493977;241;27596;-71
2024/04/23 01:01:17;;;;;;;3.50;3.20;;;-0.80;99.90;;;;;;493950;241;27517;-70
2024/04/23 01:03:19;;;;;;;4.53;4.12;;;-0.80;99.90;;;;;;493988;241;27614;-70
2024/04/23 01:05:20;;;;;;;4.28;3.87;;;-0.80;99.90;;;;;;493967;241;27522;-70
2024/04/23 01:07:21;;;;;;;4.70;4.12;;;-0.70;99.90;;;;;;493987;237;27516;-71
2024/04/23 01:09:22;;;;;;;4.32;3.92;;;-0.70;99.90;;;;;;493989;241;27471;-71
2024/04/23 01:11:24;;;;;;;4.07;3.67;;;-0.70;99.90;;;;;;494005;241;27505;-70
2024/04/23 01:13:25;;;;;;;5.28;4.25;;;-0.80;99.90;;;;;;494001;241;28006;-71
2024/04/23 01:15:26;;;;;;;4.95;4.47;;;-0.80;99.90;;;;;;494019;241;29041;-70
2024/04/23 01:17:27;;;;;;;4.30;3.90;;;-0.80;99.90;;;;;;493995;241;27558;-70
2024/04/23 01:19:29;;;;;;;4.37;4.00;;;-0.80;99.90;;;;;;493990;241;27527;-70
2024/04/23 01:21:30;;;;;;;4.32;3.92;;;-0.80;99.90;;;;;;493976;241;27505;-70
2024/04/23 01:23:31;;;;;;;4.40;3.90;;;-0.80;99.90;;;;;;493982;241;27496;-70
2024/04/23 01:25:32;;;;;;;6.62;4.22;;;-0.80;99.90;;;;;;494014;241;27462;-71
2024/04/23 01:27:34;;;;;;;4.25;3.85;;;-0.90;99.90;;;;;;494008;241;27521;-70
2024/04/23 01:29:35;;;;;;;4.62;4.20;;;-0.90;99.90;;;;;;494017;241;27600;-70
2024/04/23 01:31:36;;;;;;;4.20;3.90;;;-0.90;99.90;;;;;;494031;237;27458;-70
2024/04/23 01:33:37;;;;;;;4.15;3.83;;;-0.90;99.90;;;;;;494037;241;28068;-71
2024/04/23 01:35:39;;;;;;;5.90;3.70;;;-0.90;99.90;;;;;;494017;241;28048;-70
2024/04/23 01:37:40;;;;;;;3.92;3.60;;;-0.90;99.90;;;;;;494010;241;27508;-70
2024/04/23 01:39:41;;;;;;;5.20;4.43;;;-0.90;99.90;;;;;;494036;241;27499;-71
2024/04/23 01:41:42;;;;;;;4.60;4.05;;;-0.90;99.90;;;;;;494032;241;27473;-70
2024/04/23 01:43:44;;;;;;;3.92;3.55;;;-0.90;99.90;;;;;;494009;241;27613;-70
2024/04/23 01:45:45;;;;;;;3.80;3.50;;;-0.90;99.90;;;;;;494007;241;27477;-72
2024/04/23 01:47:46;;;;;;;4.72;4.32;;;-1.00;99.90;;;;;;494001;241;27620;-70
2024/04/23 01:49:47;;;;;;;6.15;4.60;;;-1.00;99.90;;;;;;493997;237;27580;-71
2024/04/23 01:51:49;;;;;;;4.37;3.97;;;-1.00;99.90;;;;;;494000;241;27556;-70
2024/04/23 01:53:50;;;;;;;5.18;4.47;;;-1.00;99.90;;;;;;494008;241;28003;-70
2024/04/23 01:55:51;;;;;;;4.05;3.62;;;-1.00;99.90;;;;;;493989;237;29024;-70
2024/04/23 01:57:52;;;;;;;6.45;4.70;;;-1.00;99.90;;;;;;494028;241;27477;-70
2024/04/23 01:59:54;;;;;;;8.07;4.87;;;-1.10;99.90;;;;;;494014;241;27499;-72
2024/04/23 02:01:55;;;;;;;4.57;4.18;;;-1.10;99.90;;;;;;494017;241;27473;-71
2024/04/23 02:03:56;;;;;;;4.53;3.70;;;-1.20;99.90;;;;;;493987;241;27622;-70
2024/04/23 02:05:57;;;;;;;6.05;4.45;;;-1.20;99.90;;;;;;493961;241;27548;-70
2024/04/23 02:07:59;;;;;;;4.22;3.87;;;-1.20;99.90;;;;;;494006;241;27629;-70
2024/04/23 02:10:00;;;;;;;4.50;4.10;;;-1.20;99.90;;;;;;493973;241;27601;-71
2024/04/23 02:12:03;;;;;;;4.22;3.83;;;-1.20;99.90;;;;;;493976;241;27473;-70
2024/04/23 02:14:02;;;;;;;5.30;4.60;;;-1.20;99.90;;;;;;493858;241;27942;-71
2024/04/23 02:16:04;;;;;;;5.22;4.50;;;-1.20;99.90;;;;;;494039;241;28067;-71
2024/04/23 02:18:05;;;;;;;5.00;4.50;;;-1.20;99.90;;;;;;494003;241;27477;-70
2024/04/23 02:20:07;;;;;;;5.20;4.70;;;-1.20;99.90;;;;;;493991;241;27587;-70
2024/04/23 02:22:07;;;;;;;4.40;4.00;;;-1.20;99.90;;;;;;493937;241;27459;-70
2024/04/23 02:24:09;;;;;;;4.40;4.00;;;-1.30;99.90;;;;;;493970;237;27502;-70
2024/04/23 02:26:10;;;;;;;4.65;3.75;;;-1.50;99.90;;;;;;493969;241;27612;-71
2024/04/23 02:28:11;;;;;;;3.70;3.40;;;-1.50;99.90;;;;;;493966;241;27512;-70
2024/04/23 02:30:13;;;;;;;3.78;3.47;;;-1.60;99.90;;;;;;493984;241;27505;-70
2024/04/23 02:32:14;;;;;;;4.18;3.78;;;-1.50;99.90;;;;;;493969;241;27457;-70
2024/04/23 02:34:15;;;;;;;4.22;3.70;;;-1.50;99.90;;;;;;493971;241;27996;-70
2024/04/23 02:36:16;;;;;;;5.18;4.37;;;-1.50;99.90;;;;;;493968;241;29078;-71
2024/04/23 02:38:18;;;;;;;4.47;4.07;;;-1.50;99.90;;;;;;493937;237;27474;-71
2024/04/23 02:40:19;;;;;;;5.07;4.20;;;-1.40;99.90;;;;;;493890;241;27537;-70
2024/04/23 02:42:20;;;;;;;5.50;4.95;;;-1.40;99.90;;;;;;493918;241;27528;-71
2024/04/23 02:44:21;;;;;;;5.40;4.25;;;-1.40;99.90;;;;;;493940;241;27473;-70
2024/04/23 02:46:23;;;;;;;5.72;4.50;;;-1.50;99.90;;;;;;493919;241;27600;-71
2024/04/23 02:48:24;;;;;;;5.15;4.12;;;-1.50;99.90;;;;;;493906;241;27494;-70
2024/04/23 02:50:25;;;;;;;6.07;4.30;;;-1.40;99.90;;;;;;493915;241;27500;-71
2024/04/23 02:52:26;;;;;;;4.62;3.75;;;-1.40;99.90;;;;;;493951;241;27593;-71
2024/04/23 02:54:28;;;;;;;6.87;5.12;;;-1.40;99.90;;;;;;493960;237;27924;-70
2024/04/23 02:56:29;;;;;;;6.80;4.87;;;-1.30;99.90;;;;;;493957;241;28090;-70
2024/04/23 02:58:30;;;;;;;7.00;5.00;;;-1.30;99.90;;;;;;493971;241;27497;-70
2024/04/23 03:00:31;;;;;;;6.47;5.15;;;-1.30;99.90;;;;;;493995;241;27486;-70
2024/04/23 03:02:33;;;;;;;8.93;6.22;;;-1.30;99.90;;;;;;493986;241;27501;-70
2024/04/23 03:04:34;;;;;;;8.32;5.55;;;-1.40;99.90;;;;;;493946;241;27466;-70
2024/04/23 03:06:35;;;;;;;6.00;4.70;;;-1.40;99.90;;;;;;493977;241;27532;-70
2024/04/23 03:08:36;;;;;;;5.12;4.47;;;-1.30;99.90;;;;;;493998;241;27537;-71
2024/04/23 03:10:38;;;;;;;5.72;4.68;;;-1.40;99.90;;;;;;494016;241;27486;-70
2024/04/23 03:12:39;;;;;;;7.82;4.97;;;-1.40;99.90;;;;;;493983;241;27635;-70
2024/04/23 03:14:40;;;;;;;7.20;5.35;;;-1.40;99.90;;;;;;493988;241;27985;-70
2024/04/23 03:16:41;;;;;;;6.40;5.15;;;-1.60;99.90;;;;;;493979;241;28085;-71
2024/04/23 03:18:43;;;;;;;6.03;5.35;;;-1.60;99.90;;;;;;494002;241;27509;-71
2024/04/23 03:20:44;;;;;;;5.03;4.47;;;-1.70;99.90;;;;;;493983;241;27491;-70
2024/04/23 03:22:45;;;;;;;4.20;3.90;;;-1.80;99.90;;;;;;493970;241;27502;-70
2024/04/23 03:24:46;;;;;;;7.53;4.10;;;-1.80;99.90;;;;;;493955;241;27583;-70
2024/04/23 03:26:49;;;;;;;8.75;5.25;;;-1.80;99.90;;;;;;494009;241;27506;-70
2024/04/23 03:28:49;;;;;;;6.15;4.55;;;-1.70;99.90;;;;;;493955;241;27536;-71
2024/04/23 03:30:50;;;;;;;4.30;4.00;;;-1.70;99.90;;;;;;493973;241;27510;-70
2024/04/23 03:32:51;;;;;;;5.00;4.60;;;-1.70;99.90;;;;;;493938;241;27985;-71
2024/04/23 03:34:53;;;;;;;4.72;4.20;;;-1.70;99.90;;;;;;493975;241;28694;-69
2024/04/23 03:36:54;;;;;;;4.50;3.87;;;-1.70;99.90;;;;;;494017;241;29116;-70
2024/04/23 03:38:55;;;;;;;4.68;3.95;;;-1.70;99.90;;;;;;493963;241;27497;-70
2024/04/23 03:40:56;;;;;;;5.95;4.47;;;-1.70;99.90;;;;;;493960;241;27573;-70
2024/04/23 03:42:58;;;;;;;7.07;4.35;;;-1.60;99.90;;;;;;493958;241;27537;-71
2024/04/23 03:44:59;;;;;;;6.65;5.22;;;-1.60;99.90;;;;;;493980;241;27860;-71
2024/04/23 03:47:00;;;;;;;6.70;5.12;;;-1.70;99.90;;;;;;493976;241;27604;-70
2024/04/23 03:49:01;;;;;;;5.47;4.82;;;-1.60;99.90;;;;;;493989;241;27518;-70
2024/04/23 03:51:04;;;;;;;5.00;4.40;;;-1.60;99.90;;;;;;493970;241;27477;-70
2024/04/23 03:53:04;;;;;;;6.37;4.93;;;-1.60;99.90;;;;;;493952;241;27993;-70
2024/04/23 03:55:05;;;;;;;7.37;4.85;;;-1.60;99.90;;;;;;494016;241;28096;-72
2024/04/23 03:57:06;;;;;;;7.20;5.65;;;-1.60;99.90;;;;;;494016;241;29010;-70
2024/04/23 03:59:08;;;;;;;5.60;4.97;;;-1.70;99.90;;;;;;494020;241;27493;-70
2024/04/23 04:01:09;;;;;;;5.35;4.75;;;-1.70;99.90;;;;;;493993;241;27465;-70
2024/04/23 04:07:49;;;;;;;5.47;4.78;;;-1.80;99.90;;;;;;494029;241;27535;-71
2024/04/23 04:09:51;;;;;;;5.12;4.30;;;-1.90;99.90;;;;;;494032;237;27597;-71
2024/04/23 04:11:52;;;;;;;6.25;4.70;;;-1.80;99.90;;;;;;494007;241;27588;-72
2024/04/23 04:13:53;;;;;;;5.80;4.37;;;-1.90;99.90;;;;;;494007;241;27545;-70
2024/04/23 04:15:54;;;;;;;6.20;5.12;;;-1.90;99.90;;;;;;494031;241;27471;-71
2024/04/23 04:17:56;;;;;;;5.50;4.90;;;-1.80;99.90;;;;;;493975;241;27624;-70
2024/04/23 04:19:57;;;;;;;5.45;4.53;;;-1.80;99.90;;;;;;494004;241;27455;-70
2024/04/23 04:21:58;;;;;;;5.80;5.20;;;-1.80;99.90;;;;;;493972;241;28933;-70
2024/04/23 04:23:59;;;;;;;7.80;5.87;;;-1.70;99.90;;;;;;494001;241;28657;-71
2024/04/23 04:26:01;;;;;;;5.72;5.00;;;-1.80;99.90;;;;;;493978;241;28010;-71
2024/04/23 04:28:02;;;;;;;7.45;5.28;;;-1.70;99.90;;;;;;493972;241;27494;-71
2024/04/23 04:30:03;;;;;;;5.97;4.62;;;-1.80;99.90;;;;;;493968;241;27540;-70
2024/04/23 04:32:04;;;;;;;7.18;5.05;;;-1.80;99.90;;;;;;493918;241;27505;-71
2024/04/23 04:34:06;;;;;;;6.28;4.87;;;-1.70;99.90;;;;;;494004;241;27497;-71
2024/04/23 04:36:07;;;;;;;5.75;4.87;;;-1.70;99.90;;;;;;493990;241;27469;-71
2024/04/23 04:38:08;;;;;;;6.47;5.87;;;-1.70;99.90;;;;;;494014;241;27494;-71
2024/04/23 04:40:10;;;;;;;7.85;5.03;;;-1.60;99.90;;;;;;494010;241;27450;-70
2024/04/23 04:42:11;;;;;;;8.98;4.95;;;-1.60;99.90;;;;;;494024;241;27950;-70
2024/04/23 04:44:12;;;;;;;7.43;4.65;;;-1.70;99.90;;;;;;493998;241;28064;-71
2024/04/23 04:46:13;;;;;;;6.82;4.90;;;-1.60;99.90;;;;;;493986;241;29046;-71
2024/04/23 04:48:14;;;;;;;6.97;5.60;;;-1.60;99.90;;;;;;494010;241;27597;-71
2024/04/23 04:50:17;;;;;;;6.87;5.40;;;-1.50;99.90;;;;;;494037;241;27507;-72
2024/04/23 04:52:17;;;;;;;8.32;6.20;;;-1.50;99.90;;;;;;493913;241;27557;-71
2024/04/23 04:54:18;;;;;;;8.07;5.75;;;-1.50;99.90;;;;;;494012;241;27506;-71
2024/04/23 04:56:19;;;;;;;6.90;6.20;;;-1.50;99.90;;;;;;493987;241;27492;-71
2024/04/23 04:58:21;;;;;;;10.70;6.75;;;-1.40;99.90;;;;;;494000;241;27505;-70
2024/04/23 05:00:22;;;;;;;10.25;6.65;;;-1.10;99.90;;;;;;494013;237;27595;-72
2024/04/23 05:02:23;;;;;;;8.27;6.60;;;-1.00;99.90;;;;;;494032;241;27557;-70
2024/04/23 05:04:24;;;;;;;9.60;7.40;;;-0.80;99.90;;;;;;494044;241;27534;-72
2024/04/23 05:06:26;;;;;;;9.43;6.85;;;-0.60;99.90;;;;;;494005;241;27472;-70
2024/04/23 05:08:27;;;;;;;9.73;6.82;;;-0.60;99.90;;;;;;494053;241;27501;-70
2024/04/23 05:10:28;;;;;;;7.43;5.85;;;-0.50;99.90;;;;;;494056;241;27514;-71
2024/04/23 05:12:29;;;;;;;8.68;6.65;;;-0.40;99.90;;;;;;494040;241;27481;-71
2024/04/23 05:14:31;;;;;;;7.82;6.82;;;-0.40;99.90;;;;;;493999;241;27501;-71
2024/04/23 05:16:32;;;;;;;9.55;6.40;;;-0.30;99.90;;;;;;493997;241;28215;-72
2024/04/23 05:18:33;;;;;;;8.75;6.87;;;-0.30;99.90;;;;;;494039;241;28013;-71
2024/04/23 05:20:34;;;;;;;6.78;6.12;;;-0.20;99.90;;;;;;493982;241;27980;-71
2024/04/23 05:22:36;;;;;;;11.82;6.93;;;-0.20;99.90;;;;;;494047;241;27550;-71
2024/04/23 05:24:37;;;;;;;8.20;6.95;;;-0.20;99.90;;;;;;494022;241;27655;-70
2024/04/23 05:26:38;;;;;;;7.43;6.62;;;-0.10;99.90;;;;;;494065;241;27623;-72
2024/04/23 05:28:40;;;;;;;10.40;6.78;;;-0.10;99.90;;;;;;494051;241;27480;-71
2024/04/23 05:33:01;;;;;;;12.93;6.30;;;0.00;99.90;;;;;;494028;237;27608;-71
2024/04/23 05:35:02;;;;;;;7.97;6.20;;;0.10;99.90;;;;;;494019;241;27474;-71
2024/04/23 05:37:03;;;;;;;10.43;6.70;;;0.10;99.90;;;;;;493983;241;27510;-71
2024/04/23 05:39:04;;;;;;;6.95;5.40;;;0.20;99.90;;;;;;494019;241;27907;-72
2024/04/23 05:41:06;;;;;;;6.93;5.93;;;0.20;99.90;;;;;;494035;241;27573;-71
2024/04/23 05:43:07;;;;;;;8.48;6.35;;;0.20;99.90;;;;;;493991;241;27506;-71
2024/04/23 05:45:08;;;;;;;7.90;6.30;;;0.30;99.90;;;;;;493976;241;27595;-70
2024/04/23 05:47:09;;;;;;;6.97;6.25;;;0.30;99.90;;;;;;493993;241;28052;-70
2024/04/23 05:49:11;;;;;;;6.75;5.60;;;0.40;99.90;;;;;;494025;241;27990;-72
2024/04/23 05:51:12;;;;;;;7.78;6.55;;;0.40;99.90;;;;;;493998;241;27951;-71
2024/04/23 05:53:13;;;;;;;10.93;5.95;;;0.40;99.90;;;;;;494002;241;27971;-71
2024/04/23 05:55:14;;;;;;;15.63;5.80;;;0.50;99.90;;;;;;493988;241;27539;-71
2024/04/23 05:57:16;;;;;;;6.35;5.75;;;0.50;99.90;;;;;;493999;241;27479;-70
2024/04/23 05:59:17;;;;;;;7.80;6.40;;;0.60;99.90;;;;;;494005;241;27498;-71
2024/04/23 06:01:18;;;;;;;6.57;5.43;;;0.60;99.90;;;;;;494002;241;27556;-71
2024/04/23 06:03:19;;;;;;;6.50;5.70;;;0.60;99.90;;;;;;493978;241;27619;-71
2024/04/23 06:05:21;;;;;;;11.38;6.40;;;0.70;99.90;;;;;;494022;241;27525;-72
2024/04/23 06:07:22;;;;;;;6.75;5.57;;;0.70;99.90;;;;;;494002;241;27582;-71
2024/04/23 06:09:25;;;;;;;6.20;5.60;;;0.80;99.90;;;;;;493996;241;27536;-72
2024/04/23 06:11:24;;;;;;;6.60;5.22;;;0.80;99.90;;;;;;493839;241;27450;-70
2024/04/23 06:13:26;;;;;;;8.07;6.07;;;0.90;99.90;;;;;;493956;237;27957;-71
2024/04/23 06:15:27;;;;;;;7.72;5.75;;;0.90;99.90;;;;;;494017;241;28007;-73
2024/04/23 06:17:28;;;;;;;6.12;5.20;;;1.00;99.90;;;;;;494003;241;28036;-71
2024/04/23 06:19:29;;;;;;;6.47;5.30;;;1.00;99.90;;;;;;493990;241;28060;-71
2024/04/23 06:21:31;;;;;;;6.78;5.65;;;1.00;99.90;;;;;;493954;241;27505;-71
2024/04/23 06:23:32;;;;;;;5.80;5.05;;;1.10;99.90;;;;;;493942;241;27504;-71
2024/04/23 06:25:33;;;;;;;6.32;5.25;;;1.20;99.90;;;;;;494033;241;27606;-72
2024/04/23 06:27:37;;;;;;;6.72;5.50;;;1.20;99.90;;;;;;493968;237;27472;-71
2024/04/23 06:29:36;;;;;;;8.90;5.80;;;1.30;99.90;;;;;;493766;241;27502;-71
2024/04/23 06:31:38;;;;;;;5.68;5.12;;;1.40;99.90;;;;;;493996;241;27489;-71
2024/04/23 06:33:38;;;;;;;5.68;5.10;;;1.40;99.90;;;;;;493976;237;27564;-71
2024/04/23 06:35:40;;;;;;;7.47;5.55;;;1.50;99.90;;;;;;494041;241;27528;-71
2024/04/23 06:37:41;;;;;;;6.68;5.03;;;1.50;99.90;;;;;;493984;237;27609;-71
2024/04/23 06:39:42;;;;;;;6.05;5.43;;;1.50;99.90;;;;;;493982;241;27501;-71
2024/04/23 06:41:43;;;;;;;6.68;5.05;;;1.60;99.90;;;;;;493990;241;28149;-71
2024/04/23 06:43:44;;;;;;;5.25;4.55;;;1.60;99.90;;;;;;493973;241;27926;-71
2024/04/23 06:45:46;;;;;;;8.98;5.50;;;1.70;99.90;;;;;;494013;241;27982;-71
2024/04/23 06:47:47;;;;;;;5.85;4.93;;;1.80;99.90;;;;;;493986;241;27931;-71
2024/04/23 06:49:48;;;;;;;6.20;4.68;;;1.80;99.90;;;;;;493970;241;27509;-71
2024/04/23 06:51:49;;;;;;;6.35;5.05;;;1.80;99.90;;;;;;494005;237;27592;-72
2024/04/23 06:53:51;;;;;;;6.95;6.00;;;1.80;99.90;;;;;;493989;241;27533;-71
2024/04/23 06:55:52;;;;;;;7.12;5.72;;;1.90;99.90;;;;;;493985;241;27513;-71
2024/04/23 06:57:54;;;;;;;5.07;4.62;;;1.90;99.90;;;;;;493981;241;27585;-71
2024/04/23 06:59:54;;;;;;;6.97;4.90;;;1.90;99.90;;;;;;493988;241;27533;-71
2024/04/23 07:01:56;;;;;;;5.68;4.62;;;2.00;99.90;;;;;;494019;241;27521;-72
2024/04/23 07:03:57;;;;;;;5.50;4.47;;;2.00;99.90;;;;;;494010;241;27557;-71
2024/04/23 07:05:58;;;;;;;5.60;4.65;;;2.00;99.90;;;;;;493985;241;27505;-71
2024/04/23 07:07:59;;;;;;;5.03;4.53;;;2.00;99.90;;;;;;494004;241;27593;-71
2024/04/23 07:10:01;;;;;;;5.30;4.80;;;2.10;99.90;;;;;;494003;241;27977;-71
2024/04/23 07:12:02;;;;;;;6.78;5.18;;;2.20;99.90;;;;;;494012;241;28009;-72
2024/04/23 07:14:03;;;;;;;5.10;4.60;;;2.20;99.90;;;;;;494016;241;27928;-71
2024/04/23 07:16:05;;;;;;;6.05;5.05;;;2.40;99.90;;;;;;493993;241;28036;-71
2024/04/23 07:18:07;;;;;;;6.45;4.80;;;2.40;99.90;;;;;;493980;241;27506;-71
2024/04/23 07:20:07;;;;;;;6.65;4.40;;;2.50;99.90;;;;;;493961;241;27477;-71
2024/04/23 07:22:08;;;;;;;5.10;4.00;;;2.60;99.90;;;;;;494017;241;27514;-71
2024/04/23 07:24:09;;;;;;;5.82;4.93;;;2.60;99.90;;;;;;493997;241;27465;-71
2024/04/23 07:26:11;;;;;;;6.50;5.05;;;2.50;99.90;;;;;;493975;241;27600;-71
2024/04/23 07:28:12;;;;;;;5.28;4.43;;;2.60;99.90;;;;;;493975;241;28004;-72
2024/04/23 07:30:13;;;;;;;5.68;5.07;;;2.70;99.90;;;;;;494007;241;27645;-71
2024/04/23 07:32:17;;;;;;;6.43;4.68;;;2.80;99.90;;;;;;494007;241;27610;-71
2024/04/23 07:34:16;;;;;;;4.55;4.10;;;2.90;99.90;;;;;;493783;241;27469;-71
2024/04/23 07:36:17;;;;;;;5.72;4.68;;;2.90;99.90;;;;;;494013;241;28125;-71
2024/04/23 07:38:18;;;;;;;5.40;4.35;;;3.10;99.90;;;;;;494036;241;27976;-72
2024/04/23 07:40:19;;;;;;;5.20;4.70;;;3.20;99.90;;;;;;494038;241;27922;-71
2024/04/23 07:42:21;;;;;;;5.03;4.37;;;3.30;99.90;;;;;;494015;241;29143;-71
2024/04/23 07:44:22;;;;;;;5.22;4.15;;;3.40;99.90;;;;;;494042;241;27596;-71
2024/04/23 07:46:23;;;;;;;5.07;4.30;;;3.40;99.90;;;;;;493844;241;27469;-71
2024/04/23 07:48:26;;;;;;;5.85;4.90;;;3.50;99.90;;;;;;494009;241;27514;-72
2024/04/23 07:50:26;;;;;;;6.55;4.57;;;3.50;99.90;;;;;;493940;237;27471;-71
2024/04/23 07:52:27;;;;;;;5.57;4.03;;;3.60;99.90;;;;;;494031;237;27485;-71
2024/04/23 07:54:28;;;;;;;7.10;4.40;;;3.70;99.90;;;;;;494001;241;27513;-71
2024/04/23 07:56:29;;;;;;;5.15;4.07;;;3.70;99.90;;;;;;493986;241;27477;-71
2024/04/23 07:58:31;;;;;;;5.18;4.57;;;3.80;99.90;;;;;;494018;241;27518;-72
2024/04/23 08:00:32;;;;;;;4.90;4.40;;;3.80;99.90;;;;;;494015;241;27560;-71
2024/04/23 08:02:33;;;;;;;6.50;4.65;;;3.80;99.90;;;;;;493986;241;27605;-71
2024/04/23 08:04:34;;;;;;;5.18;4.03;;;4.00;99.80;;;;;;494000;241;28000;-72
2024/04/23 08:06:36;;;;;;;5.53;4.37;;;4.20;99.40;;;;;;494008;241;27910;-71
2024/04/23 08:08:37;;;;;;;4.43;4.03;;;4.30;99.20;;;;;;493986;241;28082;-71
2024/04/23 08:10:38;;;;;;;3.90;3.60;;;4.40;99.10;;;;;;493965;241;27446;-71
2024/04/23 08:12:39;;;;;;;5.90;4.20;;;4.30;98.70;;;;;;493957;241;27465;-71
2024/04/23 08:14:41;;;;;;;5.25;3.80;;;4.30;99.30;;;;;;493977;241;27535;-71
2024/04/23 08:16:42;;;;;;;5.30;3.78;;;4.40;98.90;;;;;;493992;241;27455;-71
2024/04/23 08:18:43;;;;;;;6.50;4.45;;;4.60;99.30;;;;;;493969;241;27521;-71
2024/04/23 08:20:44;;;;;;;5.82;3.70;;;4.70;98.40;;;;;;493964;241;27597;-71
2024/04/23 08:22:46;;;;;;;4.55;4.15;;;4.60;97.80;;;;;;494002;241;27604;-71
2024/04/23 08:24:47;;;;;;;4.05;3.65;;;4.70;97.40;;;;;;494002;241;27613;-71
2024/04/23 08:26:48;;;;;;;4.60;4.15;;;4.70;97.50;;;;;;493969;241;27923;-71
2024/04/23 08:28:53;;;;;;;6.45;4.12;;;4.80;97.40;;;;;;493935;241;28164;-71
2024/04/23 08:30:51;;;;;;;4.45;3.95;;;5.00;96.30;;;;;;493759;241;28155;-72
2024/04/23 08:32:53;;;;;;;6.05;3.90;;;4.90;96.00;;;;;;494014;241;27564;-71
2024/04/23 08:34:53;;;;;;;5.85;4.40;;;5.10;96.20;;;;;;493985;241;27534;-71
2024/04/23 08:36:54;;;;;;;3.83;3.45;;;5.00;95.10;;;;;;493987;241;27461;-71
2024/04/23 08:38:56;;;;;;;4.45;4.05;;;5.00;96.10;;;;;;494010;241;27506;-71
2024/04/23 08:40:57;;;;;;;4.65;3.80;;;5.10;96.60;;;;;;494027;241;27597;-72
2024/04/23 08:42:58;;;;;;;5.80;3.60;;;5.30;95.70;;;;;;494021;241;27565;-71
2024/04/23 08:45:00;;;;;;;4.28;3.87;;;5.40;93.40;;;;;;494009;241;27480;-71
2024/04/23 08:47:01;;;;;;;4.07;3.60;;;5.20;94.00;;;;;;494022;241;28702;-72
2024/04/23 08:49:02;;;;;;;4.35;3.80;;;5.20;93.70;;;;;;494022;241;27917;-71
2024/04/23 08:51:03;;;;;;;4.10;3.70;;;5.10;94.10;;;;;;493996;238;27502;-72
2024/04/23 08:53:05;;;;;;;4.20;3.80;;;5.20;94.50;;;;;;494013;241;27468;-71
2024/04/23 08:55:06;;;;;;;4.07;3.40;;;5.40;93.20;;;;;;493993;237;27497;-71
2024/04/23 08:57:07;;;;;;;3.50;3.20;;;5.40;93.10;;;;;;493998;241;27488;-71
2024/04/23 08:59:09;;;;;;;3.85;3.50;;;5.50;93.40;;;;;;494013;241;27481;-71
2024/04/23 09:01:10;;;;;;;3.95;3.55;;;5.40;92.80;;;;;;493982;241;27496;-71
2024/04/23 09:03:12;;;;;;;6.53;4.45;;;5.30;92.70;;;;;;493995;237;28042;-71
2024/04/23 09:05:12;;;;;;;5.55;3.80;;;5.50;93.00;;;;;;493953;241;27956;-71
2024/04/23 09:07:13;;;;;;;4.57;3.55;;;5.50;92.70;;;;;;494050;241;27497;-72
2024/04/23 09:09:15;;;;;;;3.95;3.45;;;5.80;93.40;;;;;;494028;241;27577;-72
2024/04/23 09:11:16;;;;;;;4.50;3.78;;;5.70;92.40;;;;;;494000;241;27528;-72
2024/04/23 09:13:17;;;;;;;5.30;3.85;;;5.70;92.80;;;;;;493998;241;27469;-71
2024/04/23 09:15:18;;;;;;;4.65;4.25;;;5.90;93.10;;;;;;494039;237;27492;-71
2024/04/23 09:17:22;;;;;;;6.05;4.03;;;5.80;92.60;;;;;;494081;241;28005;-72
2024/04/23 09:19:21;;;;;;;4.62;3.60;;;5.70;92.80;;;;;;493853;241;27971;-71
2024/04/23 09:21:22;;;;;;;4.20;3.50;;;5.50;92.30;;;;;;494000;241;27505;-71
2024/04/23 09:23:23;;;;;;;4.78;3.22;;;5.50;92.50;;;;;;494044;241;27498;-71
2024/04/23 09:25:25;;;;;;;5.30;3.90;;;5.50;92.70;;;;;;494031;241;27452;-71
2024/04/23 09:27:26;;;;;;;5.55;3.95;;;5.60;92.90;;;;;;494043;241;27511;-72
2024/04/23 09:29:27;;;;;;;4.78;4.15;;;5.70;92.00;;;;;;494015;241;27569;-72
2024/04/23 09:31:28;;;;;;;5.57;3.65;;;5.80;92.70;;;;;;494018;241;27967;-72
2024/04/23 09:33:31;;;;;;;4.85;3.60;;;6.20;92.40;;;;;;494054;241;28108;-73
2024/04/23 09:35:31;;;;;;;3.80;3.30;;;6.20;91.20;;;;;;493933;241;27518;-71
2024/04/23 09:37:32;;;;;;;9.97;3.23;;;6.10;91.00;;;;;;494062;241;27544;-72
2024/04/23 09:39:33;;;;;;;3.60;3.30;;;6.10;90.80;;;;;;493995;241;28860;-72
2024/04/23 09:41:35;;;;;;;4.57;3.55;;;6.10;91.10;;;;;;494027;241;27472;-72
2024/04/23 09:43:36;;;;;;;4.73;3.67;;;6.00;91.00;;;;;;494028;241;27510;-72
2024/04/23 09:45:37;;;;;;;3.58;3.28;;;6.30;91.90;;;;;;494009;241;27807;-71
2024/04/23 09:47:38;;;;;;;6.63;3.20;;;6.50;93.30;;;;;;494001;241;27966;-72
2024/04/23 09:49:40;;;;;;;4.20;3.80;;;6.60;91.80;;;;;;494002;241;28993;-72
2024/04/23 09:51:41;;;;;;;3.97;3.57;;;6.90;90.30;;;;;;494029;241;27505;-71
2024/04/23 09:53:42;;;;;;;4.30;3.90;;;6.90;90.10;;;;;;493992;241;27859;-72
2024/04/23 09:55:43;;;;;;;4.00;3.40;;;6.70;89.30;;;;;;494011;241;28797;-72
2024/04/23 09:57:45;;;;;;;4.00;3.60;;;6.90;89.90;;;;;;494007;241;28148;-71
2024/04/23 09:59:46;;;;;;;3.40;3.10;;;7.00;89.30;;;;;;494035;241;27976;-72
2024/04/23 10:01:47;;;;;;;4.00;3.63;;;7.20;89.40;;;;;;494050;241;27947;-71
2024/04/23 10:03:48;;;;;;;6.80;3.67;;;7.10;85.70;;;;;;494034;241;28118;-72
2024/04/23 10:05:50;;;;;;;3.97;3.30;;;6.90;84.70;;;;;;493993;241;28797;-71
2024/04/23 10:07:51;;;;;;;4.30;3.10;;;6.80;84.00;;;;;;494012;241;28114;-71
2024/04/23 10:09:52;;;;;;;5.77;3.37;;;6.90;85.30;;;;;;494037;241;27988;-73
2024/04/23 10:11:53;;;;;;;5.33;4.20;;;7.00;85.20;;;;;;494039;241;28129;-72
2024/04/23 10:13:55;;;;;;;3.30;3.00;;;7.00;84.40;;;;;;494026;241;28196;-72
2024/04/23 10:15:56;;;;;;;5.97;3.93;;;7.00;82.10;;;;;;493983;241;27954;-72
2024/04/23 10:17:57;;;;;;;4.17;2.93;;;7.00;84.30;;;;;;494032;241;28103;-71
2024/04/23 10:19:58;;;;;;;3.27;2.97;;;7.00;84.30;;;;;;494051;241;28455;-72
2024/04/23 10:22:00;;;;;;;4.20;3.33;;;7.20;85.50;;;;;;494065;241;27905;-72
2024/04/23 10:24:07;;;;;;;4.47;3.93;;;7.30;87.10;;;;;;494028;241;28585;-72
2024/04/23 10:26:05;;;;;;;6.10;3.70;;;7.10;84.50;;;;;;493768;241;28434;-71
2024/04/23 10:28:06;;;;;;;5.90;4.00;;;6.80;84.40;;;;;;494029;241;28894;-73
2024/04/23 10:30:08;;;;;;;4.67;3.57;;;6.90;86.20;;;;;;494032;241;27999;-72
2024/04/23 10:32:09;;;;;;;5.20;3.60;;;7.20;84.80;;;;;;494030;241;28456;-72
2024/04/23 10:34:11;;;;;;;7.13;3.50;;;7.30;86.00;;;;;;494027;241;28423;-71
2024/04/23 10:36:11;;;;;;;3.80;3.40;;;7.50;84.70;;;;;;494002;241;28451;-72
2024/04/23 10:38:14;;;;;;;26.93;3.90;;;7.90;86.40;;;;;;494006;241;28245;-73
2024/04/23 10:40:14;;;;;;;3.70;2.97;;;8.10;82.20;;;;;;493935;241;28523;-72